Terminal Aerodrome Forecast
Issued by NWS

Home | Current Version | Previous Version | Text Only | Print | Product List | Glossary On
Versions: 1 2 3 4 5 6 7 8 9 10 11 12 13
000
FTUS41 KBGM 170929 AAA
TAFRME
TAF AMD
KRME 170929Z 1709/1806 VRB04KT 4SM -SN OVC035
     FM171000 28007KT 6SM -SN OVC015
     FM171600 28010G20KT 6SM -SHSN OVC025
     FM172000 25007KT P6SM OVC035
     FM180200 22004KT P6SM OVC050=

USA.gov is the U.S. government's official web portal to all federal, state and local government web resources and services.